createdAt,value
2022-12-18T00:01:20.875Z,95373.16
2022-12-18T00:03:48.445Z,95380.19
2022-12-18T00:06:16.412Z,95387.63
2022-12-18T00:08:44.593Z,95386.94
2022-12-18T00:11:17.282Z,95389.97
2022-12-18T00:13:44.792Z,95383.47
2022-12-18T00:16:14.773Z,95387.16
2022-12-18T00:18:42.678Z,95397.81
2022-12-18T00:21:12.829Z,95389.81
2022-12-18T00:23:43.475Z,95398.19
2022-12-18T00:26:16.529Z,95402.97
2022-12-18T00:28:44.703Z,95402.09
2022-12-18T00:31:16.460Z,95411.06
2022-12-18T00:33:46.012Z,95421.38
2022-12-18T00:36:20.612Z,95413.22
2022-12-18T00:38:48.863Z,95418.81
2022-12-18T00:41:40.157Z,95422.53
2022-12-18T00:44:08.952Z,95424.88
2022-12-18T00:46:36.410Z,95419.00
2022-12-18T00:49:04.364Z,95422.16
2022-12-18T00:51:32.035Z,95434.44
2022-12-18T00:53:59.241Z,95427.41
2022-12-18T00:56:26.665Z,95420.94
2022-12-18T00:58:54.375Z,95441.63
2022-12-18T01:01:21.835Z,95437.34
2022-12-18T01:03:49.197Z,95435.25
2022-12-18T01:06:17.822Z,95437.03
2022-12-18T01:08:45.762Z,95442.59
2022-12-18T01:11:19.451Z,95449.06
2022-12-18T01:13:46.900Z,95459.00
2022-12-18T01:16:16.370Z,95455.75
2022-12-18T01:18:43.731Z,95462.81
2022-12-18T01:21:14.138Z,95460.03
2022-12-18T01:23:41.841Z,95460.38
2022-12-18T01:26:13.986Z,95460.03
2022-12-18T01:28:41.292Z,95457.84
2022-12-18T01:31:23.834Z,95451.47
2022-12-18T01:33:55.025Z,95459.41
2022-12-18T01:36:27.985Z,95458.41
2022-12-18T01:38:55.620Z,95459.34
2022-12-18T01:41:27.409Z,95464.91
2022-12-18T01:43:58.855Z,95479.59
2022-12-18T01:46:26.117Z,95476.38
2022-12-18T01:49:02.321Z,95472.53
2022-12-18T01:51:32.088Z,95487.47
2022-12-18T01:54:01.885Z,95480.66
2022-12-18T01:56:29.711Z,95474.59
2022-12-18T01:59:07.146Z,95483.38
2022-12-18T02:01:34.417Z,95473.84
2022-12-18T02:04:26.114Z,95479.44
2022-12-18T02:07:08.551Z,95478.38
2022-12-18T02:09:44.606Z,95490.16
2022-12-18T02:12:20.715Z,95484.66
2022-12-18T02:15:05.279Z,95486.28
2022-12-18T02:17:52.519Z,95497.16
2022-12-18T02:20:55.970Z,95492.56
2022-12-18T02:23:48.555Z,95503.72
2022-12-18T02:26:45.908Z,95502.78
2022-12-18T02:29:39.989Z,95502.09
2022-12-18T02:32:12.053Z,95501.22
2022-12-18T02:34:41.208Z,95507.09
2022-12-18T02:37:17.377Z,95505.25
2022-12-18T02:39:48.004Z,95510.31
2022-12-18T02:42:16.297Z,95518.47
2022-12-18T02:44:48.823Z,95515.09
2022-12-18T02:47:23.287Z,95519.94
2022-12-18T02:50:42.417Z,95514.97
2022-12-18T02:53:35.107Z,95527.59
2022-12-18T02:56:32.168Z,95528.38
2022-12-18T02:59:09.705Z,95530.22
2022-12-18T03:01:57.509Z,95532.78
2022-12-18T03:04:34.910Z,95525.28
2022-12-18T03:07:09.351Z,95528.69
2022-12-18T03:09:41.018Z,95526.50
2022-12-18T03:12:25.260Z,95534.25
2022-12-18T03:15:05.987Z,95527.75
2022-12-18T03:17:34.846Z,95530.53
2022-12-18T03:20:12.753Z,95532.16
2022-12-18T03:22:43.139Z,95546.63
2022-12-18T03:25:14.529Z,95543.53
2022-12-18T03:27:49.148Z,95549.34
2022-12-18T03:30:18.608Z,95557.88
2022-12-18T03:33:00.498Z,95561.94
2022-12-18T03:35:36.105Z,95568.63
2022-12-18T03:38:05.131Z,95565.50
2022-12-18T03:41:05.221Z,95567.00
2022-12-18T03:44:02.330Z,95568.72
2022-12-18T03:46:58.725Z,95571.19
2022-12-18T03:49:34.858Z,95579.28
2022-12-18T03:52:31.608Z,95580.81
2022-12-18T03:55:00.999Z,95589.16
2022-12-18T03:57:31.667Z,95597.97
2022-12-18T04:00:05.466Z,95585.47
2022-12-18T04:02:46.838Z,95592.78
2022-12-18T04:05:21.825Z,95584.47
2022-12-18T04:07:51.287Z,95586.88
2022-12-18T04:10:19.501Z,95582.84
2022-12-18T04:12:47.762Z,95587.56
2022-12-18T04:15:16.004Z,95588.13
2022-12-18T04:17:49.849Z,95607.13
2022-12-18T04:20:20.192Z,95612.31
2022-12-18T04:22:48.385Z,95619.25
2022-12-18T04:25:15.798Z,95610.00
2022-12-18T04:27:54.822Z,95624.09
2022-12-18T04:30:21.966Z,95624.56
2022-12-18T04:32:52.316Z,95636.94
2022-12-18T04:35:21.360Z,95643.22
2022-12-18T04:37:48.849Z,95637.31
2022-12-18T04:40:16.485Z,95648.88
2022-12-18T04:42:46.591Z,95647.03
2022-12-18T04:45:14.213Z,95653.28
2022-12-18T04:47:42.455Z,95662.50
2022-12-18T04:50:09.707Z,95659.72
2022-12-18T04:52:36.868Z,95662.25
2022-12-18T04:55:04.487Z,95661.81
2022-12-18T04:57:31.602Z,95667.56
2022-12-18T04:59:58.562Z,95660.50
2022-12-18T05:02:25.883Z,95666.41
2022-12-18T05:04:52.988Z,95670.09
2022-12-18T05:07:20.504Z,95678.66
2022-12-18T05:09:47.783Z,95689.66
2022-12-18T05:12:14.805Z,95682.25
2022-12-18T05:14:42.409Z,95688.94
2022-12-18T05:17:09.411Z,95702.00
2022-12-18T05:19:39.368Z,95704.59
2022-12-18T05:22:09.181Z,95701.25
2022-12-18T05:24:36.359Z,95720.44
2022-12-18T05:27:03.604Z,95716.41
2022-12-18T05:29:30.803Z,95717.94
2022-12-18T05:31:57.843Z,95723.72
2022-12-18T05:34:25.088Z,95718.50
2022-12-18T05:36:52.078Z,95723.78
2022-12-18T05:39:19.173Z,95732.56
2022-12-18T05:41:46.120Z,95727.56
2022-12-18T05:44:14.043Z,95734.47
2022-12-18T05:46:42.786Z,95738.31
2022-12-18T05:49:10.411Z,95735.09
2022-12-18T05:51:37.584Z,95752.47
2022-12-18T05:54:05.130Z,95746.56
2022-12-18T05:56:33.043Z,95752.59
2022-12-18T05:59:00.391Z,95743.66
2022-12-18T06:01:28.301Z,95755.41
2022-12-18T06:03:56.833Z,95763.03
2022-12-18T06:06:26.507Z,95770.31
2022-12-18T06:08:55.182Z,95770.69
2022-12-18T06:11:25.410Z,95763.28
2022-12-18T06:13:58.629Z,95759.06
2022-12-18T06:16:27.628Z,95764.38
2022-12-18T06:18:57.235Z,95757.91
2022-12-18T06:21:24.301Z,95776.28
2022-12-18T06:23:51.670Z,95767.72
2022-12-18T06:26:22.089Z,95779.63
2022-12-18T06:28:51.982Z,95774.66
2022-12-18T06:31:19.206Z,95772.47
2022-12-18T06:33:46.168Z,95780.91
2022-12-18T06:36:14.195Z,95786.63
2022-12-18T06:38:43.402Z,95790.59
2022-12-18T06:41:12.989Z,95795.31
2022-12-18T06:43:40.407Z,95790.94
2022-12-18T06:46:08.073Z,95796.94
2022-12-18T06:48:35.498Z,95797.63
2022-12-18T06:51:03.412Z,95791.38
2022-12-18T06:53:30.923Z,95800.97
2022-12-18T06:56:09.908Z,95805.38
2022-12-18T06:58:37.967Z,95807.00
2022-12-18T07:01:08.957Z,95811.50
2022-12-18T07:03:36.308Z,95822.09
2022-12-18T07:06:04.164Z,95816.47
2022-12-18T07:08:32.692Z,95818.94
2022-12-18T07:11:00.084Z,95809.53
2022-12-18T07:13:28.106Z,95830.00
2022-12-18T07:15:55.176Z,95836.13
2022-12-18T07:18:22.273Z,95838.44
2022-12-18T07:20:49.307Z,95827.75
2022-12-18T07:23:16.723Z,95829.91
2022-12-18T07:25:43.983Z,95829.53
2022-12-18T07:28:17.056Z,95830.44
2022-12-18T07:30:44.450Z,95846.88
2022-12-18T07:33:11.567Z,95832.13
2022-12-18T07:35:39.223Z,95836.69
2022-12-18T07:38:06.612Z,95833.38
2022-12-18T07:40:34.211Z,95843.41
2022-12-18T07:43:01.438Z,95836.78
2022-12-18T07:45:28.434Z,95850.88
2022-12-18T07:47:55.710Z,95843.56
2022-12-18T07:50:23.085Z,95838.25
2022-12-18T07:52:50.078Z,95848.72
2022-12-18T07:55:17.294Z,95849.63
2022-12-18T07:57:53.409Z,95856.47
2022-12-18T08:00:23.848Z,95855.22
2022-12-18T08:02:50.902Z,95863.59
2022-12-18T08:05:18.607Z,95867.63
2022-12-18T08:07:45.662Z,95872.66
2022-12-18T08:10:13.064Z,95874.13
2022-12-18T08:12:40.284Z,95879.94
2022-12-18T08:15:08.603Z,95887.50
2022-12-18T08:17:35.633Z,95881.66
2022-12-18T08:20:02.951Z,95879.00
2022-12-18T08:22:30.117Z,95885.94
2022-12-18T08:24:57.439Z,95891.97
2022-12-18T08:27:31.479Z,95900.25
2022-12-18T08:29:59.755Z,95885.03
2022-12-18T08:32:29.892Z,95900.13
2022-12-18T08:34:57.649Z,95905.09
2022-12-18T08:37:25.115Z,95897.75
2022-12-18T08:39:52.270Z,95899.53
2022-12-18T08:42:38.429Z,95901.06
2022-12-18T08:45:06.010Z,95905.13
2022-12-18T08:47:33.164Z,95903.06
2022-12-18T08:50:00.216Z,95904.84
2022-12-18T08:52:27.206Z,95914.81
2022-12-18T08:54:54.225Z,95916.31
2022-12-18T08:57:21.327Z,95919.31
2022-12-18T08:59:49.735Z,95912.53
2022-12-18T09:02:17.029Z,95907.50
2022-12-18T09:04:46.761Z,95903.06
2022-12-18T09:07:14.115Z,95914.28
2022-12-18T09:09:41.253Z,95908.09
2022-12-18T09:12:08.365Z,95893.31
2022-12-18T09:14:35.347Z,95906.16
2022-12-18T09:17:02.303Z,95911.25
2022-12-18T09:19:29.450Z,95909.69
2022-12-18T09:21:57.226Z,95911.53
2022-12-18T09:24:24.336Z,95903.78
2022-12-18T09:26:57.820Z,95907.97
2022-12-18T09:29:25.797Z,95914.38
2022-12-18T09:31:53.277Z,95910.03
2022-12-18T09:34:22.216Z,95902.69
2022-12-18T09:36:50.064Z,95915.88
2022-12-18T09:39:17.398Z,95902.69
2022-12-18T09:41:56.023Z,95904.00
2022-12-18T09:44:47.461Z,95916.88
2022-12-18T09:47:27.188Z,95915.06
2022-12-18T09:49:57.946Z,95908.81
2022-12-18T09:52:32.044Z,95910.31
2022-12-18T09:55:25.818Z,95910.91
2022-12-18T09:57:57.689Z,95908.94
2022-12-18T10:00:26.425Z,95910.84
2022-12-18T10:03:00.074Z,95901.81
2022-12-18T10:05:43.418Z,95908.41
2022-12-18T10:08:51.070Z,95899.97
2022-12-18T10:12:00.977Z,95899.75
2022-12-18T10:14:43.674Z,95901.59
2022-12-18T10:17:49.051Z,95899.97
2022-12-18T10:20:30.732Z,95896.72
2022-12-18T10:23:26.196Z,95902.59
2022-12-18T10:26:11.445Z,95904.47
2022-12-18T10:28:41.957Z,95907.72
2022-12-18T10:31:18.259Z,95914.66
2022-12-18T10:33:45.774Z,95908.69
2022-12-18T10:36:14.387Z,95921.66
2022-12-18T10:38:41.841Z,95905.47
2022-12-18T10:41:29.657Z,95906.50
2022-12-18T10:44:23.658Z,95905.25
2022-12-18T10:46:57.249Z,95894.78
2022-12-18T10:49:28.106Z,95902.22
2022-12-18T10:52:24.144Z,95909.75
2022-12-18T10:55:02.829Z,95911.25
2022-12-18T10:57:38.322Z,95904.84
2022-12-18T11:00:29.283Z,95900.91
2022-12-18T11:02:58.677Z,95891.84
2022-12-18T11:05:32.025Z,95896.13
2022-12-18T11:08:03.278Z,95909.94
2022-12-18T11:10:34.782Z,95907.53
2022-12-18T11:13:22.288Z,95912.41
2022-12-18T11:15:50.321Z,95899.56
2022-12-18T11:18:27.192Z,95910.56
2022-12-18T11:20:59.049Z,95910.91
2022-12-18T11:23:27.971Z,95908.22
2022-12-18T11:25:58.829Z,95920.03
2022-12-18T11:28:37.019Z,95909.75
2022-12-18T11:31:23.445Z,95920.41
2022-12-18T11:34:28.459Z,95917.72
2022-12-18T11:36:59.493Z,95901.38
2022-12-18T11:39:39.754Z,95909.97
2022-12-18T11:42:50.348Z,95904.31
2022-12-18T11:45:43.088Z,95913.34
2022-12-18T11:48:28.759Z,95908.09
2022-12-18T11:51:02.226Z,95916.13
2022-12-18T11:53:31.510Z,95910.56
2022-12-18T11:56:35.900Z,95908.94
2022-12-18T11:59:58.471Z,95907.09
2022-12-18T12:03:04.353Z,95906.38
2022-12-18T12:06:15.802Z,95900.81
2022-12-18T12:16:14.665Z,95898.13
2022-12-18T12:19:07.550Z,95906.38
2022-12-18T12:21:54.182Z,95912.63
2022-12-18T12:39:39.912Z,95909.38
2022-12-18T12:42:34.829Z,95896.97
2022-12-18T12:45:07.888Z,95907.19
2022-12-18T12:47:42.591Z,95911.03
2022-12-18T12:50:17.188Z,95928.28
2022-12-18T12:52:53.042Z,95925.25
2022-12-18T12:55:29.135Z,95931.53
2022-12-18T12:58:20.480Z,95923.53
2022-12-18T13:01:02.723Z,95935.94
2022-12-18T13:07:29.392Z,95929.66
2022-12-18T13:10:26.888Z,95941.59
2022-12-18T13:13:23.576Z,95934.41
2022-12-18T13:16:19.882Z,95949.84
2022-12-18T13:18:55.982Z,95953.84
2022-12-18T13:21:32.204Z,95949.44
2022-12-18T13:24:17.154Z,95953.56
2022-12-18T13:26:44.253Z,95955.72
2022-12-18T13:29:11.457Z,95947.28
2022-12-18T13:32:01.921Z,95960.97
2022-12-18T13:34:32.730Z,95962.13
2022-12-18T13:37:19.890Z,95969.22
2022-12-18T13:39:46.998Z,95961.03
2022-12-18T13:42:57.717Z,95963.63
2022-12-18T13:45:47.491Z,95955.84
2022-12-18T13:48:24.864Z,95964.41
2022-12-18T13:51:12.600Z,95972.28
2022-12-18T13:53:45.629Z,95970.63
2022-12-18T13:56:18.872Z,95977.81
2022-12-18T13:58:46.379Z,95976.56
2022-12-18T14:01:32.104Z,95969.41
2022-12-18T14:04:33.835Z,95979.94
2022-12-18T14:07:07.072Z,95979.09
2022-12-18T14:09:38.884Z,95986.63
2022-12-18T14:12:32.056Z,95976.72
2022-12-18T14:15:01.538Z,95973.78
2022-12-18T14:17:28.707Z,95989.06
2022-12-18T14:19:57.180Z,95989.63
2022-12-18T14:22:31.359Z,95986.97
2022-12-18T14:25:19.951Z,95992.06
2022-12-18T14:27:51.408Z,95991.50
2022-12-18T14:30:41.604Z,95992.13
2022-12-18T14:33:14.004Z,95994.09
2022-12-18T14:36:03.800Z,96000.59
2022-12-18T14:38:38.923Z,95998.50
2022-12-18T14:41:22.464Z,95994.56
2022-12-18T14:43:51.966Z,95990.97
2022-12-18T14:46:41.685Z,95996.34
2022-12-18T14:49:31.580Z,96000.53
2022-12-18T14:52:03.345Z,95996.47
2022-12-18T14:54:31.479Z,96000.16
2022-12-18T14:57:06.935Z,96003.25
2022-12-18T14:59:34.468Z,95994.34
2022-12-18T15:02:23.181Z,96000.81
2022-12-18T15:05:12.852Z,95996.59
2022-12-18T15:07:45.924Z,95999.34
2022-12-18T15:10:22.044Z,96000.03
2022-12-18T15:13:22.875Z,95996.56
2022-12-18T15:15:50.869Z,96000.84
2022-12-18T15:18:23.046Z,96000.47
2022-12-18T15:20:58.763Z,96008.53
2022-12-18T15:23:50.421Z,96014.75
2022-12-18T15:26:18.380Z,96010.34
2022-12-18T15:28:53.148Z,96016.31
2022-12-18T15:31:31.050Z,96020.63
2022-12-18T15:34:11.973Z,96023.63
2022-12-18T15:36:39.390Z,96025.25
2022-12-18T15:39:07.178Z,96024.00
2022-12-18T15:41:36.892Z,96029.59
2022-12-18T15:44:22.605Z,96034.06
2022-12-18T15:46:49.977Z,96034.13
2022-12-18T15:49:17.151Z,96043.31
2022-12-18T15:51:45.004Z,96055.13
2022-12-18T15:54:17.475Z,96053.28
2022-12-18T15:57:02.742Z,96052.91
2022-12-18T15:59:29.831Z,96050.53
2022-12-18T16:02:00.528Z,96057.13
2022-12-18T16:04:27.915Z,96065.09
2022-12-18T16:09:43.222Z,96075.97
2022-12-18T16:12:20.627Z,96080.97
2022-12-18T16:14:48.605Z,96076.56
2022-12-18T16:17:16.198Z,96076.19
2022-12-18T16:19:43.446Z,96077.81
2022-12-18T16:22:23.360Z,96070.63
2022-12-18T16:24:51.955Z,96073.44
2022-12-18T16:27:20.128Z,96070.63
2022-12-18T16:29:47.364Z,96082.47
2022-12-18T16:32:18.721Z,96083.50
2022-12-18T16:34:47.447Z,96092.38
2022-12-18T16:37:16.116Z,96090.75
2022-12-18T16:39:43.672Z,96094.44
2022-12-18T16:42:20.124Z,96094.44
2022-12-18T16:44:48.755Z,96102.94
2022-12-18T16:47:17.492Z,96114.97
2022-12-18T16:49:51.915Z,96112.06
2022-12-18T16:52:20.963Z,96120.16
2022-12-18T16:54:48.071Z,96124.16
2022-12-18T16:57:18.461Z,96122.31
2022-12-18T16:59:45.769Z,96127.66
2022-12-18T17:02:17.150Z,96131.22
2022-12-18T17:04:47.031Z,96132.84
2022-12-18T17:07:15.288Z,96145.69
2022-12-18T17:09:43.010Z,96155.81
2022-12-18T17:12:10.742Z,96155.69
2022-12-18T17:14:37.979Z,96153.97
2022-12-18T17:17:20.982Z,96155.03
2022-12-18T17:19:49.372Z,96158.88
2022-12-18T17:22:17.491Z,96158.19
2022-12-18T17:24:44.673Z,96165.78
2022-12-18T17:27:11.829Z,96176.50
2022-12-18T17:29:47.270Z,96172.16
2022-12-18T17:32:15.436Z,96170.72
2022-12-18T17:34:42.489Z,96170.53
2022-12-18T17:37:09.853Z,96158.28
2022-12-18T17:39:37.014Z,96168.47
2022-12-18T17:42:05.253Z,96165.63
2022-12-18T17:44:34.463Z,96166.09
2022-12-18T17:47:01.754Z,96163.34
2022-12-18T17:49:29.078Z,96157.84
2022-12-18T17:51:56.392Z,96160.72
2022-12-18T17:54:23.374Z,96152.94
2022-12-18T17:56:50.437Z,96156.22
2022-12-18T17:59:17.479Z,96162.34
2022-12-18T18:01:46.107Z,96158.31
2022-12-18T18:04:17.611Z,96162.41
2022-12-18T18:06:44.535Z,96167.47
2022-12-18T18:09:15.940Z,96168.66
2022-12-18T18:12:04.429Z,96164.16
2022-12-18T18:14:31.914Z,96174.50
2022-12-18T18:17:03.898Z,96176.50
2022-12-18T18:19:32.623Z,96170.88
2022-12-18T18:21:59.623Z,96173.91
2022-12-18T18:24:26.804Z,96176.13
2022-12-18T18:26:54.366Z,96184.31
2022-12-18T18:29:25.823Z,96193.97
2022-12-18T18:31:55.527Z,96184.69
2022-12-18T18:34:28.474Z,96187.22
2022-12-18T18:36:55.475Z,96204.22
2022-12-18T18:39:22.637Z,96206.53
2022-12-18T18:41:50.032Z,96213.09
2022-12-18T18:44:18.210Z,96208.66
2022-12-18T18:46:45.554Z,96220.28
2022-12-18T18:49:13.982Z,96216.22
2022-12-18T18:51:41.845Z,96219.47
2022-12-18T18:54:09.424Z,96212.75
2022-12-18T18:59:31.233Z,96227.84
2022-12-18T19:01:59.507Z,96228.66
2022-12-18T19:04:29.123Z,96225.59
2022-12-18T19:06:56.822Z,96232.34
2022-12-18T19:09:24.326Z,96232.75
2022-12-18T19:12:11.484Z,96238.06
2022-12-18T19:14:38.777Z,96235.59
2022-12-18T19:17:05.886Z,96235.59
2022-12-18T19:19:33.787Z,96232.56
2022-12-18T19:22:02.888Z,96248.47
2022-12-18T19:24:30.991Z,96236.00
2022-12-18T19:26:58.324Z,96234.78
2022-12-18T19:29:25.722Z,96240.09
2022-12-18T19:31:53.880Z,96241.31
2022-12-18T19:34:21.315Z,96240.91
2022-12-18T19:36:48.418Z,96245.81
2022-12-18T19:39:17.607Z,96254.38
2022-12-18T19:41:45.076Z,96261.31
2022-12-18T19:44:16.448Z,96266.63
2022-12-18T19:46:45.690Z,96263.78
2022-12-18T19:49:18.219Z,96270.31
2022-12-18T19:51:45.850Z,96262.13
2022-12-18T19:54:16.643Z,96263.75
2022-12-18T19:56:45.226Z,96268.66
2022-12-18T19:59:13.028Z,96276.03
2022-12-18T20:01:40.871Z,96271.50
2022-12-18T20:04:08.573Z,96276.63
2022-12-18T20:06:47.307Z,96280.09
2022-12-18T20:09:14.420Z,96280.09
2022-12-18T20:11:42.550Z,96278.88
2022-12-18T20:14:14.179Z,96279.25
2022-12-18T20:16:44.154Z,96284.56
2022-12-18T20:19:12.612Z,96288.84
2022-12-18T20:21:40.050Z,96286.16
2022-12-18T20:24:08.887Z,96289.16
2022-12-18T20:26:36.187Z,96286.91
2022-12-18T20:29:03.413Z,96283.44
2022-12-18T20:31:30.600Z,96298.06
2022-12-18T20:34:00.907Z,96296.00
2022-12-18T20:36:31.724Z,96297.84
2022-12-18T20:39:01.679Z,96312.44
2022-12-18T20:41:37.898Z,96322.22
2022-12-18T20:44:22.489Z,96326.06
2022-12-18T20:47:01.114Z,96332.78
2022-12-18T20:49:32.136Z,96328.75
2022-12-18T20:51:59.633Z,96335.66
2022-12-18T20:54:29.955Z,96333.28
2022-12-18T20:56:58.064Z,96324.25
2022-12-18T20:59:25.930Z,96322.84
2022-12-18T21:01:53.515Z,96326.50
2022-12-18T21:04:21.840Z,96311.53
2022-12-18T21:06:54.185Z,96324.16
2022-12-18T21:09:27.904Z,96324.63
2022-12-18T21:12:20.509Z,96327.44
2022-12-18T21:14:49.539Z,96323.41
2022-12-18T21:17:17.275Z,96322.13
2022-12-18T21:19:45.696Z,96316.31
2022-12-18T21:22:14.066Z,96318.56
2022-12-18T21:24:40.948Z,96322.22
2022-12-18T21:27:07.926Z,96311.19
2022-12-18T21:29:35.686Z,96310.38
2022-12-18T21:32:03.881Z,96321.50
2022-12-18T21:34:32.307Z,96324.56
2022-12-18T21:37:00.627Z,96328.22
2022-12-18T21:39:29.397Z,96329.03
2022-12-18T21:42:15.755Z,96326.59
2022-12-18T21:44:43.898Z,96333.69
2022-12-18T21:47:22.112Z,96325.97
2022-12-18T21:49:51.673Z,96323.84
2022-12-18T21:52:19.450Z,96333.50
2022-12-18T21:54:47.111Z,96330.63
2022-12-18T21:57:14.039Z,96333.50
2022-12-18T21:59:43.579Z,96330.53
2022-12-18T22:02:16.745Z,96338.03
2022-12-18T22:04:45.499Z,96333.75
2022-12-18T22:07:16.011Z,96332.97
2022-12-18T22:09:44.201Z,96340.91
2022-12-18T22:12:13.585Z,96334.22
2022-12-18T22:14:40.755Z,96332.53
2022-12-18T22:17:08.034Z,96323.16
2022-12-18T22:19:41.057Z,96332.25
2022-12-18T22:22:10.061Z,96328.38
2022-12-18T22:24:37.189Z,96334.13
2022-12-18T22:27:04.354Z,96328.47
2022-12-18T22:29:51.306Z,96318.31
2022-12-18T22:32:31.004Z,96314.91
2022-12-18T22:35:10.427Z,96329.13
2022-12-18T22:37:42.062Z,96321.19
2022-12-18T22:40:23.953Z,96316.72
2022-12-18T22:42:52.594Z,96310.59
2022-12-18T22:45:24.169Z,96309.16
2022-12-18T22:47:51.645Z,96301.00
2022-12-18T22:50:20.319Z,96298.84
2022-12-18T22:52:48.182Z,96298.59
2022-12-18T22:55:15.773Z,96304.28
2022-12-18T22:57:48.659Z,96303.16
2022-12-18T23:00:16.889Z,96309.78
2022-12-18T23:02:51.329Z,96304.16
2022-12-18T23:05:22.626Z,96303.13
2022-12-18T23:07:50.689Z,96303.03
2022-12-18T23:10:18.583Z,96309.38
2022-12-18T23:12:46.198Z,96300.59
2022-12-18T23:15:13.833Z,96302.25
2022-12-18T23:17:43.971Z,96314.28
2022-12-18T23:20:11.609Z,96311.91
2022-12-18T23:22:38.620Z,96318.56
2022-12-18T23:25:06.179Z,96314.06
2022-12-18T23:27:33.174Z,96318.25
2022-12-18T23:30:01.361Z,96321.78
2022-12-18T23:32:29.329Z,96317.59
2022-12-18T23:34:56.363Z,96325.69
2022-12-18T23:37:56.814Z,96321.69
2022-12-18T23:40:11.651Z,96328.03
2022-12-18T23:42:39.137Z,96321.88
2022-12-18T23:45:16.604Z,96311.72
2022-12-18T23:47:44.933Z,96315.38
2022-12-18T23:50:14.180Z,96320.88
2022-12-18T23:52:41.361Z,96326.09
2022-12-18T23:55:09.854Z,96338.63
2022-12-18T23:57:36.957Z,96330.44
